Time;durP1;ratioP1;P1;durP2;ratioP2;P2;SDS_P1;SDS_P2;PMS_P1;PMS_P2;Temp;Humidity;BMP_temperature;BMP_pressure;BME280_temperature;BME280_humidity;BME280_pressure;Samples;Min_cycle;Max_cycle;Signal;HPM_P1;HPM_P2
2022/07/17 00:00:42;;;;;;;2.90;0.65;;;12.70;99.90;;;;;;5073558;28;20021;-73
2022/07/17 00:03:11;;;;;;;3.83;0.55;;;12.70;99.90;;;;;;5074786;28;20492;-73
2022/07/17 00:05:37;;;;;;;3.60;0.10;;;12.60;99.90;;;;;;5074763;28;20056;-73
2022/07/17 00:08:07;;;;;;;3.42;0.43;;;12.60;99.90;;;;;;5075377;28;20097;-73
2022/07/17 00:10:33;;;;;;;0.63;0.13;;;12.60;99.90;;;;;;5073344;28;20021;-73
2022/07/17 00:12:59;;;;;;;1.48;0.00;;;12.50;99.90;;;;;;5074623;28;20052;-73
2022/07/17 00:15:24;;;;;;;1.23;0.10;;;12.40;99.90;;;;;;5073404;28;20385;-73
2022/07/17 00:17:50;;;;;;;3.92;0.00;;;12.40;99.90;;;;;;5074461;28;20024;-74
2022/07/17 00:20:16;;;;;;;0.88;0.20;;;12.40;99.90;;;;;;5074426;28;20485;-74
2022/07/17 00:22:43;;;;;;;2.15;0.20;;;12.30;99.90;;;;;;5074470;28;20074;-73
2022/07/17 00:25:09;;;;;;;1.02;0.00;;;12.20;99.90;;;;;;5074980;28;20484;-73
2022/07/17 00:27:37;;;;;;;2.20;0.25;;;12.20;99.90;;;;;;5073148;28;20132;-73
2022/07/17 00:30:03;;;;;;;2.17;0.03;;;12.20;99.90;;;;;;5074180;28;20063;-73
2022/07/17 00:32:29;;;;;;;2.88;0.10;;;12.20;99.90;;;;;;5074235;28;20069;-73
2022/07/17 00:34:55;;;;;;;1.40;0.00;;;12.10;99.90;;;;;;5074243;28;20032;-73
2022/07/17 00:37:21;;;;;;;1.58;0.10;;;12.00;99.90;;;;;;5074096;28;20091;-73
2022/07/17 00:39:46;;;;;;;3.17;0.30;;;12.00;99.90;;;;;;5074121;28;20025;-73
2022/07/17 00:42:16;;;;;;;1.10;0.00;;;11.90;99.90;;;;;;5074079;28;20416;-74
2022/07/17 00:44:43;;;;;;;2.28;0.43;;;11.90;99.90;;;;;;5074376;28;20032;-75
2022/07/17 00:47:27;;;;;;;2.08;0.85;;;11.90;99.90;;;;;;5074107;28;20024;-75
2022/07/17 00:49:52;;;;;;;4.47;0.10;;;11.80;99.90;;;;;;5072722;28;20021;-76
2022/07/17 00:52:18;;;;;;;3.03;0.85;;;11.80;99.90;;;;;;5072502;28;20047;-76
2022/07/17 00:54:45;;;;;;;1.30;0.00;;;11.80;99.90;;;;;;5073957;28;20030;-76
2022/07/17 00:57:13;;;;;;;2.80;0.00;;;11.80;99.90;;;;;;5074102;28;20032;-76
2022/07/17 00:59:40;;;;;;;1.48;0.20;;;11.80;99.90;;;;;;5072553;28;20496;-75
2022/07/17 01:02:08;;;;;;;1.08;0.05;;;11.70;99.90;;;;;;5072603;28;20021;-75
2022/07/17 01:04:34;;;;;;;5.85;0.70;;;11.70;99.90;;;;;;5073704;28;20546;-76
2022/07/17 01:07:01;;;;;;;4.60;0.00;;;11.70;99.90;;;;;;5074029;28;20032;-76
2022/07/17 01:09:28;;;;;;;1.52;0.30;;;11.70;99.90;;;;;;5073910;28;20032;-75
2022/07/17 01:11:55;;;;;;;1.27;0.00;;;11.70;99.90;;;;;;5073950;28;20099;-75
2022/07/17 01:14:25;;;;;;;2.55;0.40;;;11.70;99.90;;;;;;5072362;28;20119;-75
2022/07/17 01:16:51;;;;;;;1.88;0.05;;;11.70;99.90;;;;;;5073435;28;20024;-75
2022/07/17 01:19:18;;;;;;;3.65;0.35;;;11.70;99.90;;;;;;5073514;28;20501;-75
2022/07/17 01:21:45;;;;;;;0.95;0.10;;;11.70;99.90;;;;;;5073781;28;20024;-75
2022/07/17 01:24:12;;;;;;;1.30;0.08;;;11.60;99.90;;;;;;5073461;28;20055;-75
2022/07/17 01:26:41;;;;;;;1.30;0.20;;;11.60;99.90;;;;;;5073467;28;20362;-75
2022/07/17 01:29:09;;;;;;;0.45;0.10;;;11.60;99.90;;;;;;5073361;28;20108;-75
2022/07/17 01:31:34;;;;;;;2.80;0.03;;;11.60;99.90;;;;;;5073618;28;20055;-75
2022/07/17 01:34:01;;;;;;;0.55;0.05;;;11.50;99.90;;;;;;5073398;28;20067;-75
2022/07/17 01:36:26;;;;;;;0.60;0.10;;;11.50;99.90;;;;;;5073303;28;20541;-75
2022/07/17 01:38:52;;;;;;;3.65;0.20;;;11.50;99.90;;;;;;5073283;28;20142;-75
2022/07/17 01:41:18;;;;;;;2.45;0.00;;;11.50;99.90;;;;;;5073902;28;20019;-75
2022/07/17 01:43:43;;;;;;;1.17;0.00;;;11.40;99.90;;;;;;5072000;28;20059;-75
2022/07/17 01:46:09;;;;;;;1.90;0.10;;;11.40;99.90;;;;;;5072120;28;20035;-75
2022/07/17 01:48:34;;;;;;;2.15;0.20;;;11.50;99.90;;;;;;5073199;28;20028;-75
2022/07/17 01:51:00;;;;;;;1.05;0.10;;;11.50;99.90;;;;;;5073834;28;20029;-75
2022/07/17 01:53:26;;;;;;;1.10;0.00;;;11.50;99.90;;;;;;5073668;28;20032;-75
2022/07/17 01:55:52;;;;;;;0.95;0.00;;;11.50;99.90;;;;;;5073242;28;20025;-75
2022/07/17 01:58:17;;;;;;;3.88;0.00;;;11.50;99.90;;;;;;5073230;28;20017;-73
2022/07/17 02:00:43;;;;;;;0.32;0.10;;;11.40;99.90;;;;;;5073007;28;20029;-73
2022/07/17 02:03:08;;;;;;;2.08;0.20;;;11.40;99.90;;;;;;5073588;28;20027;-73
2022/07/17 02:05:34;;;;;;;0.93;0.30;;;11.30;99.90;;;;;;5077375;28;20064;-73
2022/07/17 02:08:00;;;;;;;6.35;0.43;;;11.40;99.90;;;;;;5077074;28;20045;-74
2022/07/17 02:10:26;;;;;;;0.10;0.10;;;11.30;99.90;;;;;;5076949;28;20454;-74
2022/07/17 02:12:51;;;;;;;0.35;0.10;;;11.30;99.90;;;;;;5077061;28;20395;-74
2022/07/17 02:15:17;;;;;;;1.88;0.10;;;11.30;99.90;;;;;;5076957;28;20070;-74
2022/07/17 02:17:42;;;;;;;1.08;0.10;;;11.30;99.90;;;;;;5076810;28;20028;-74
2022/07/17 02:20:09;;;;;;;5.22;0.40;;;11.30;99.90;;;;;;5076888;28;20017;-73
2022/07/17 02:22:36;;;;;;;6.22;0.30;;;11.30;99.90;;;;;;5077073;28;20403;-74
2022/07/17 02:25:03;;;;;;;3.08;0.05;;;11.30;99.90;;;;;;5076756;28;20028;-74
2022/07/17 02:27:31;;;;;;;3.40;0.10;;;11.30;99.90;;;;;;5075367;28;20052;-74
2022/07/17 02:29:57;;;;;;;2.60;0.43;;;11.20;99.90;;;;;;5075711;28;20103;-73
2022/07/17 02:32:22;;;;;;;1.55;0.03;;;11.20;99.90;;;;;;5076630;28;20063;-73
2022/07/17 02:34:48;;;;;;;6.18;0.28;;;11.20;99.90;;;;;;5077105;28;20036;-74
2022/07/17 02:37:14;;;;;;;1.33;0.38;;;11.20;99.90;;;;;;5076407;28;20027;-73
2022/07/17 02:39:52;;;;;;;2.15;0.10;;;11.20;99.90;;;;;;5076380;28;20020;-73
2022/07/17 02:42:21;;;;;;;1.63;0.20;;;11.20;99.90;;;;;;5077029;28;20013;-73
2022/07/17 02:44:47;;;;;;;3.78;0.10;;;11.20;99.90;;;;;;5076300;28;20028;-73
2022/07/17 02:47:20;;;;;;;4.28;0.25;;;11.10;99.90;;;;;;5076304;28;20082;-73
2022/07/17 02:49:45;;;;;;;0.40;0.10;;;11.10;99.90;;;;;;5074940;28;20024;-74
2022/07/17 02:52:11;;;;;;;3.83;0.47;;;11.10;99.90;;;;;;5074924;28;20032;-74
2022/07/17 02:54:36;;;;;;;3.20;0.35;;;11.00;99.90;;;;;;5076327;28;20063;-74
2022/07/17 02:57:02;;;;;;;1.50;0.22;;;11.00;99.90;;;;;;5076111;28;20031;-73
2022/07/17 02:59:27;;;;;;;1.75;0.20;;;11.10;99.90;;;;;;5074698;28;20468;-74
2022/07/17 03:01:53;;;;;;;1.48;0.10;;;11.10;99.90;;;;;;5076088;28;20385;-73
2022/07/17 03:04:19;;;;;;;3.15;0.10;;;11.00;99.90;;;;;;5075932;28;20485;-74
2022/07/17 03:06:44;;;;;;;3.15;0.20;;;11.10;99.90;;;;;;5076041;28;20031;-74
2022/07/17 03:09:10;;;;;;;1.85;0.00;;;11.10;99.90;;;;;;5075838;28;20020;-73
2022/07/17 03:11:35;;;;;;;3.83;0.38;;;11.10;99.90;;;;;;5074572;28;20444;-73
2022/07/17 03:14:01;;;;;;;1.88;0.00;;;11.00;99.90;;;;;;5075862;28;20412;-73
2022/07/17 03:16:27;;;;;;;2.60;0.03;;;11.00;99.90;;;;;;5074419;28;20122;-74
2022/07/17 03:18:52;;;;;;;2.38;0.20;;;11.00;99.90;;;;;;5074459;28;20013;-74
2022/07/17 03:21:18;;;;;;;1.75;0.00;;;11.00;99.90;;;;;;5075759;28;20048;-74
2022/07/17 03:23:43;;;;;;;3.30;0.15;;;11.00;99.90;;;;;;5075733;28;20021;-73
2022/07/17 03:26:09;;;;;;;1.17;0.20;;;11.00;99.90;;;;;;5074506;28;20025;-73
2022/07/17 03:28:34;;;;;;;1.10;0.40;;;11.00;99.90;;;;;;5076041;28;20470;-73
2022/07/17 03:31:00;;;;;;;3.72;0.03;;;11.00;99.90;;;;;;5076667;28;20045;-75
2022/07/17 03:33:25;;;;;;;2.28;0.10;;;10.90;99.90;;;;;;5075757;28;20062;-75
2022/07/17 03:35:51;;;;;;;5.82;0.03;;;11.00;99.90;;;;;;5075326;28;20035;-75
2022/07/17 03:38:16;;;;;;;5.40;0.20;;;11.00;99.90;;;;;;5075439;28;20115;-76
2022/07/17 03:40:42;;;;;;;5.15;0.10;;;11.00;99.90;;;;;;5075390;28;20104;-76
2022/07/17 03:43:07;;;;;;;2.85;0.20;;;11.30;99.90;;;;;;5075560;28;20025;-76
2022/07/17 03:45:33;;;;;;;4.57;0.00;;;11.00;99.90;;;;;;5075296;28;20013;-76
2022/07/17 03:47:59;;;;;;;4.13;0.40;;;11.00;99.90;;;;;;5075196;28;20131;-76
2022/07/17 03:50:24;;;;;;;2.08;0.30;;;11.10;99.90;;;;;;5075072;28;20031;-76
2022/07/17 03:52:50;;;;;;;1.75;0.13;;;11.10;99.90;;;;;;5075215;28;20044;-76
2022/07/17 03:55:15;;;;;;;3.92;0.47;;;11.10;99.90;;;;;;5075348;28;20103;-76
2022/07/17 03:57:41;;;;;;;1.42;0.00;;;11.10;99.90;;;;;;5075208;28;20025;-76
2022/07/17 04:00:07;;;;;;;1.65;0.00;;;11.10;99.90;;;;;;5074917;28;20013;-76
2022/07/17 04:02:33;;;;;;;3.10;0.03;;;11.10;99.90;;;;;;5073061;28;20041;-76
2022/07/17 04:04:58;;;;;;;5.57;0.10;;;11.10;99.90;;;;;;5075042;28;20074;-76
2022/07/17 04:07:27;;;;;;;2.38;0.63;;;11.10;99.90;;;;;;5075201;28;20065;-75
2022/07/17 04:09:54;;;;;;;2.53;0.10;;;11.10;99.90;;;;;;5074759;28;20047;-75
2022/07/17 04:12:20;;;;;;;1.17;0.00;;;11.10;99.90;;;;;;5073483;28;20012;-75
2022/07/17 04:14:46;;;;;;;2.05;0.00;;;11.10;99.90;;;;;;5073363;28;20082;-75
2022/07/17 04:17:11;;;;;;;3.22;0.10;;;11.10;99.90;;;;;;5074839;28;20024;-76
2022/07/17 04:19:37;;;;;;;2.15;0.22;;;11.10;99.90;;;;;;5074509;28;20035;-76
2022/07/17 04:22:02;;;;;;;2.28;0.00;;;11.10;99.90;;;;;;5075125;28;20024;-75
2022/07/17 04:24:28;;;;;;;0.63;0.08;;;11.10;99.90;;;;;;5073247;28;20023;-75
2022/07/17 04:26:53;;;;;;;0.75;0.00;;;11.10;99.90;;;;;;5072972;28;20021;-75
2022/07/17 04:29:19;;;;;;;1.40;0.28;;;11.10;99.90;;;;;;5074269;28;20028;-75
2022/07/17 04:31:44;;;;;;;2.28;0.20;;;11.10;99.90;;;;;;5073076;28;20040;-76
2022/07/17 04:34:10;;;;;;;2.80;0.52;;;11.10;99.90;;;;;;5074668;28;20097;-75
2022/07/17 04:36:35;;;;;;;3.35;0.25;;;11.20;99.90;;;;;;5074547;28;20040;-75
2022/07/17 04:39:01;;;;;;;2.55;0.25;;;11.20;99.90;;;;;;5074383;28;20060;-75
2022/07/17 04:41:27;;;;;;;2.53;0.30;;;11.30;99.90;;;;;;5074214;28;20540;-75
2022/07/17 04:43:53;;;;;;;3.03;0.55;;;11.40;99.90;;;;;;5074142;28;20025;-75
2022/07/17 04:46:19;;;;;;;5.28;0.47;;;11.50;99.90;;;;;;5074094;28;20048;-74
2022/07/17 04:48:45;;;;;;;3.17;0.82;;;11.60;99.90;;;;;;5074295;28;20052;-75
2022/07/17 04:51:10;;;;;;;8.23;0.88;;;11.70;99.90;;;;;;5074077;28;20024;-75
2022/07/17 04:53:37;;;;;;;6.15;0.80;;;11.90;99.90;;;;;;5074024;28;20481;-77
2022/07/17 04:56:03;;;;;;;2.08;0.40;;;12.10;99.90;;;;;;5074288;28;20032;-76
2022/07/17 04:58:28;;;;;;;6.28;1.65;;;12.10;99.90;;;;;;5074117;28;20016;-76
2022/07/17 05:00:54;;;;;;;2.45;0.47;;;12.10;99.90;;;;;;5073873;28;20046;-75
2022/07/17 05:03:19;;;;;;;2.33;0.82;;;12.20;99.90;;;;;;5072578;28;20371;-76
2022/07/17 05:05:45;;;;;;;8.50;0.90;;;12.30;99.90;;;;;;5072596;28;20505;-76
2022/07/17 05:08:11;;;;;;;2.47;0.70;;;12.40;99.90;;;;;;5073745;28;20055;-75
2022/07/17 05:10:36;;;;;;;2.58;0.40;;;12.60;99.90;;;;;;5073563;28;20020;-78
2022/07/17 05:13:02;;;;;;;4.15;0.35;;;12.80;99.90;;;;;;5072940;28;20074;-76
2022/07/17 05:15:27;;;;;;;5.18;0.68;;;12.90;99.90;;;;;;5073916;28;20032;-75
2022/07/17 05:17:53;;;;;;;2.33;0.22;;;13.00;99.90;;;;;;5073642;28;20036;-75
2022/07/17 05:20:18;;;;;;;1.05;0.28;;;13.20;99.90;;;;;;5073429;28;20024;-72
2022/07/17 05:22:44;;;;;;;4.05;0.43;;;13.40;99.90;;;;;;5073766;28;20032;-73
2022/07/17 05:25:09;;;;;;;2.35;0.20;;;13.60;99.90;;;;;;5073777;28;20369;-74
2022/07/17 05:27:35;;;;;;;1.30;0.47;;;13.80;99.90;;;;;;5072146;28;20401;-74
2022/07/17 05:30:01;;;;;;;0.77;0.17;;;14.00;99.90;;;;;;5072214;28;20060;-75
2022/07/17 05:32:27;;;;;;;8.48;0.55;;;14.30;99.90;;;;;;5072476;28;20020;-74
2022/07/17 05:34:53;;;;;;;3.63;0.10;;;14.40;99.90;;;;;;5072715;28;20497;-73
2022/07/17 05:37:19;;;;;;;3.88;0.10;;;14.50;99.90;;;;;;5072571;28;20032;-74
2022/07/17 05:39:45;;;;;;;2.45;0.05;;;14.60;99.90;;;;;;5073324;28;20417;-74
2022/07/17 05:42:10;;;;;;;1.80;0.00;;;15.60;99.90;;;;;;5073475;28;20013;-75
2022/07/17 05:44:36;;;;;;;1.45;0.20;;;14.80;99.90;;;;;;5072865;28;20021;-74
2022/07/17 05:47:02;;;;;;;0.43;0.10;;;14.90;99.90;;;;;;5072984;28;20036;-75
2022/07/17 05:49:27;;;;;;;0.90;0.00;;;15.00;99.90;;;;;;5073360;28;20028;-75
2022/07/17 05:51:53;;;;;;;1.63;0.00;;;14.90;99.90;;;;;;5073131;28;20024;-74
2022/07/17 05:54:18;;;;;;;3.30;0.57;;;15.20;99.90;;;;;;5073040;28;20025;-75
2022/07/17 05:56:44;;;;;;;0.35;0.00;;;14.90;99.90;;;;;;5072934;28;20048;-75
2022/07/17 05:59:09;;;;;;;2.38;0.00;;;14.90;99.90;;;;;;5073315;28;20044;-75
2022/07/17 06:01:38;;;;;;;0.88;0.00;;;15.00;99.90;;;;;;5073442;28;20031;-75
2022/07/17 06:04:04;;;;;;;0.10;0.00;;;15.10;99.90;;;;;;5072989;28;20478;-75
2022/07/17 06:06:29;;;;;;;3.40;0.10;;;15.30;99.90;;;;;;5073139;28;20036;-75
2022/07/17 06:08:55;;;;;;;1.52;0.10;;;15.40;99.90;;;;;;5070463;28;20032;-75
2022/07/17 06:11:20;;;;;;;1.10;0.00;;;15.50;99.90;;;;;;5071580;28;20033;-74
2022/07/17 06:13:46;;;;;;;2.95;0.15;;;15.60;99.90;;;;;;5071388;28;20028;-74
2022/07/17 06:16:12;;;;;;;1.67;0.00;;;15.70;99.90;;;;;;5071435;28;20055;-75
2022/07/17 06:18:37;;;;;;;1.40;0.00;;;15.80;99.90;;;;;;5071462;28;20419;-75
2022/07/17 06:21:03;;;;;;;0.45;0.00;;;15.90;99.90;;;;;;5069989;28;20389;-75
2022/07/17 06:23:30;;;;;;;3.30;0.03;;;16.10;99.90;;;;;;5071925;28;20020;-75
2022/07/17 06:25:56;;;;;;;2.58;0.10;;;16.20;99.90;;;;;;5073080;28;20025;-75
2022/07/17 06:28:22;;;;;;;1.55;0.00;;;16.30;99.90;;;;;;5071568;28;20115;-75
2022/07/17 06:30:48;;;;;;;3.10;0.10;;;16.40;99.90;;;;;;5071552;28;20111;-75
2022/07/17 06:33:14;;;;;;;4.75;0.20;;;16.50;99.90;;;;;;5071644;28;20033;-75
2022/07/17 06:35:39;;;;;;;2.17;0.75;;;16.70;99.90;;;;;;5072791;28;20111;-75
2022/07/17 06:38:05;;;;;;;1.60;0.00;;;16.80;99.90;;;;;;5072703;28;20112;-75
2022/07/17 06:40:31;;;;;;;0.38;0.00;;;16.90;99.90;;;;;;5071763;28;20030;-75
2022/07/17 06:42:56;;;;;;;2.47;0.00;;;17.00;99.90;;;;;;5072826;28;20021;-75
2022/07/17 06:45:22;;;;;;;2.88;0.00;;;17.10;99.90;;;;;;5072661;28;20023;-75
2022/07/17 06:47:47;;;;;;;3.03;0.00;;;17.20;99.90;;;;;;5071514;28;20052;-75
2022/07/17 06:50:13;;;;;;;3.92;0.20;;;17.20;99.90;;;;;;5076046;28;20377;-75
2022/07/17 06:52:39;;;;;;;1.38;0.10;;;17.20;99.90;;;;;;5076566;28;20020;-75
2022/07/17 06:55:04;;;;;;;2.20;0.00;;;17.20;99.90;;;;;;5076339;28;20505;-75
2022/07/17 06:57:30;;;;;;;1.52;0.00;;;17.40;99.90;;;;;;5074946;28;20040;-75
2022/07/17 06:59:56;;;;;;;1.75;0.00;;;17.50;99.90;;;;;;5076353;28;20114;-76
2022/07/17 07:02:21;;;;;;;3.65;0.08;;;17.40;99.90;;;;;;5074908;28;20107;-75
2022/07/17 07:04:47;;;;;;;0.10;0.00;;;17.60;99.90;;;;;;5079271;22;20041;-75
2022/07/17 07:07:12;;;;;;;1.55;0.00;;;17.60;99.90;;;;;;5038104;28;20039;-76
2022/07/17 07:09:38;;;;;;;2.40;0.10;;;17.80;99.90;;;;;;5055828;28;20044;-75
2022/07/17 07:12:04;;;;;;;4.68;0.10;;;17.90;99.90;;;;;;5056177;28;20025;-76
2022/07/17 07:14:29;;;;;;;1.52;0.00;;;18.00;99.90;;;;;;5055814;28;20529;-76
2022/07/17 07:16:55;;;;;;;2.28;0.38;;;18.10;99.90;;;;;;5055778;28;20116;-76
2022/07/17 07:19:20;;;;;;;0.68;0.00;;;18.10;99.90;;;;;;5054490;28;20017;-75
2022/07/17 07:21:46;;;;;;;0.55;0.00;;;18.20;99.90;;;;;;5055704;28;20043;-76
2022/07/17 07:24:11;;;;;;;2.55;0.15;;;18.30;99.90;;;;;;5055979;28;20423;-76
2022/07/17 07:26:37;;;;;;;0.55;0.00;;;18.30;99.90;;;;;;5054413;28;20037;-75
2022/07/17 07:29:03;;;;;;;1.95;0.00;;;18.30;99.90;;;;;;5055554;28;20108;-75
2022/07/17 07:31:28;;;;;;;0.05;0.00;;;18.40;99.90;;;;;;5055524;28;20061;-76
2022/07/17 07:33:54;;;;;;;1.85;0.00;;;18.50;99.90;;;;;;5055528;28;20028;-76
2022/07/17 07:36:19;;;;;;;3.13;0.10;;;18.70;99.90;;;;;;5055604;28;20029;-75
2022/07/17 07:38:45;;;;;;;3.30;0.30;;;18.80;99.90;;;;;;5055335;28;20022;-76
2022/07/17 07:41:11;;;;;;;0.75;0.00;;;18.90;99.90;;;;;;5055298;28;20017;-76
2022/07/17 07:43:36;;;;;;;2.67;0.08;;;18.90;99.90;;;;;;5055371;28;20040;-76
2022/07/17 07:46:03;;;;;;;1.13;0.20;;;19.10;99.90;;;;;;5055263;28;20032;-76
2022/07/17 07:48:29;;;;;;;2.63;0.20;;;19.10;99.40;;;;;;5054073;28;20104;-76
2022/07/17 07:50:54;;;;;;;1.75;0.00;;;19.10;99.90;;;;;;5055141;28;20450;-76
2022/07/17 07:53:20;;;;;;;2.95;0.00;;;19.20;99.90;;;;;;5055151;28;20036;-76
2022/07/17 07:55:46;;;;;;;3.30;0.00;;;19.40;99.90;;;;;;5055146;28;20021;-75
2022/07/17 07:58:13;;;;;;;1.73;0.22;;;19.60;99.90;;;;;;5055259;28;20111;-75
2022/07/17 08:00:40;;;;;;;2.40;0.05;;;19.70;99.10;;;;;;5054326;28;20017;-76
2022/07/17 08:03:06;;;;;;;1.55;0.00;;;19.70;98.90;;;;;;5055264;28;20071;-76
2022/07/17 08:05:32;;;;;;;1.08;0.00;;;19.70;98.00;;;;;;5053632;28;20390;-76
2022/07/17 08:07:58;;;;;;;1.10;0.00;;;19.70;96.40;;;;;;5055093;28;20040;-76
2022/07/17 08:10:24;;;;;;;0.52;0.00;;;19.60;97.20;;;;;;5054794;28;20056;-76
2022/07/17 08:12:50;;;;;;;1.60;0.00;;;19.80;97.40;;;;;;5053833;28;20055;-76
2022/07/17 08:15:19;;;;;;;2.08;0.00;;;19.90;96.20;;;;;;5054679;28;20029;-76
2022/07/17 08:17:45;;;;;;;2.00;0.38;;;20.00;96.80;;;;;;5054638;28;20021;-76
2022/07/17 08:20:11;;;;;;;0.90;0.00;;;20.00;95.40;;;;;;5053301;28;20021;-75
2022/07/17 08:22:37;;;;;;;0.57;0.00;;;20.00;96.40;;;;;;5054569;28;20059;-75
2022/07/17 08:25:03;;;;;;;0.30;0.00;;;20.20;96.70;;;;;;5055217;28;20056;-75
2022/07/17 08:27:36;;;;;;;0.63;0.00;;;20.40;95.30;;;;;;5053180;28;20017;-76
2022/07/17 08:30:03;;;;;;;1.20;0.00;;;20.50;92.70;;;;;;5054423;28;20029;-76
2022/07/17 08:32:28;;;;;;;0.10;0.10;;;20.70;92.90;;;;;;5054252;28;20108;-76
2022/07/17 08:34:54;;;;;;;1.23;0.00;;;20.80;90.60;;;;;;5054883;28;20056;-76
2022/07/17 08:37:19;;;;;;;1.00;0.00;;;20.80;91.40;;;;;;5054460;28;20060;-75
2022/07/17 08:39:45;;;;;;;3.22;0.00;;;20.60;90.80;;;;;;5054490;28;20054;-75
2022/07/17 08:42:15;;;;;;;2.45;0.00;;;20.50;90.90;;;;;;5054529;28;20151;-75
2022/07/17 08:44:41;;;;;;;0.95;0.00;;;20.40;91.60;;;;;;5054178;28;20414;-76
2022/07/17 08:47:08;;;;;;;2.65;0.00;;;20.70;92.70;;;;;;5054097;28;20032;-76
2022/07/17 08:49:37;;;;;;;1.38;0.00;;;20.90;92.40;;;;;;5053977;28;20025;-76
2022/07/17 08:52:04;;;;;;;0.20;0.00;;;21.10;93.40;;;;;;5053957;28;20032;-76
2022/07/17 08:54:29;;;;;;;0.60;0.00;;;21.00;91.20;;;;;;5054014;28;20036;-76
2022/07/17 08:56:57;;;;;;;0.57;0.00;;;21.20;91.20;;;;;;5053826;28;20021;-76
2022/07/17 08:59:22;;;;;;;2.50;0.00;;;21.30;91.30;;;;;;5053896;28;20031;-76
2022/07/17 09:01:48;;;;;;;1.20;0.30;;;21.50;90.20;;;;;;5053863;28;20476;-76
2022/07/17 09:04:13;;;;;;;2.50;0.35;;;21.50;90.30;;;;;;5054318;28;20053;-76
2022/07/17 09:06:39;;;;;;;1.67;0.00;;;21.40;88.30;;;;;;5054427;28;20032;-76
2022/07/17 09:09:09;;;;;;;0.65;0.00;;;21.30;90.20;;;;;;5054253;28;20390;-75
2022/07/17 09:11:50;;;;;;;1.60;0.00;;;21.60;91.50;;;;;;5053959;28;20389;-77
2022/07/17 09:14:16;;;;;;;1.48;0.00;;;21.80;90.70;;;;;;5054340;28;20032;-76
2022/07/17 09:16:53;;;;;;;1.38;0.17;;;22.00;89.50;;;;;;5053571;28;20367;-76
2022/07/17 09:19:30;;;;;;;0.70;0.00;;;22.10;87.30;;;;;;5052369;28;20043;-76
2022/07/17 09:22:06;;;;;;;0.20;0.00;;;22.10;86.70;;;;;;5052591;28;20551;-76
2022/07/17 09:24:48;;;;;;;3.10;0.00;;;22.20;86.80;;;;;;5053976;28;20071;-76
2022/07/17 09:27:23;;;;;;;1.08;0.20;;;22.30;86.50;;;;;;5053595;28;20096;-76
2022/07/17 09:30:04;;;;;;;1.98;0.30;;;22.40;86.30;;;;;;5053648;28;20029;-76
2022/07/17 09:32:35;;;;;;;1.33;0.00;;;22.50;86.80;;;;;;5054464;28;20095;-76
2022/07/17 09:35:02;;;;;;;1.98;0.03;;;22.60;85.10;;;;;;5053453;28;20025;-76
2022/07/17 09:37:30;;;;;;;1.92;0.00;;;22.70;87.20;;;;;;5053233;28;20025;-76
2022/07/17 09:39:57;;;;;;;0.57;0.00;;;22.90;89.80;;;;;;5051987;28;20021;-76
2022/07/17 09:42:24;;;;;;;2.00;0.00;;;23.00;85.90;;;;;;5053293;28;20099;-76
2022/07/17 09:45:10;;;;;;;0.30;0.00;;;23.10;85.70;;;;;;5053310;28;20071;-76
2022/07/17 09:47:38;;;;;;;3.15;0.00;;;23.10;84.70;;;;;;5053251;28;20064;-76
2022/07/17 09:50:06;;;;;;;0.10;0.00;;;23.20;86.10;;;;;;5053114;28;20023;-76
2022/07/17 09:52:34;;;;;;;;;;;23.30;84.50;;;;;;5053610;28;20105;-76
2022/07/17 09:55:00;;;;;;;1.00;0.10;;;23.50;84.20;;;;;;5053233;28;19992;-76
2022/07/17 09:57:31;;;;;;;1.92;0.00;;;23.60;81.20;;;;;;5052988;28;20040;-76
2022/07/17 10:00:00;;;;;;;1.13;0.00;;;23.60;80.60;;;;;;5053096;28;20053;-76
2022/07/17 10:02:26;;;;;;;0.38;0.10;;;23.70;80.50;;;;;;5053082;28;20021;-76
2022/07/17 10:04:52;;;;;;;1.00;0.30;;;23.90;76.70;;;;;;5053165;28;20040;-76
2022/07/17 10:07:19;;;;;;;0.57;0.10;;;23.90;75.30;;;;;;5051822;28;20029;-77
2022/07/17 10:09:45;;;;;;;1.00;0.22;;;23.70;72.10;;;;;;5051775;28;20080;-76
2022/07/17 10:12:14;;;;;;;1.27;0.03;;;23.80;72.80;;;;;;5052971;28;20028;-76
2022/07/17 10:14:41;;;;;;;2.83;0.10;;;25.00;75.30;;;;;;5053416;28;20044;-76
2022/07/17 10:17:10;;;;;;;0.77;0.00;;;24.10;74.30;;;;;;5052936;28;20021;-76
2022/07/17 10:19:50;;;;;;;0.85;0.00;;;24.30;72.60;;;;;;5052927;28;20025;-76
2022/07/17 10:22:17;;;;;;;0.20;0.00;;;24.50;71.10;;;;;;5051643;28;20021;-76
2022/07/17 10:24:49;;;;;;;1.48;0.00;;;24.70;70.20;;;;;;5054256;28;20112;-76
2022/07/17 10:27:29;;;;;;;0.25;0.00;;;24.80;71.10;;;;;;5055638;28;20032;-76
2022/07/17 10:30:05;;;;;;;1.65;0.40;;;25.00;70.10;;;;;;5055377;28;20033;-76
2022/07/17 10:32:31;;;;;;;1.65;0.00;;;25.10;69.40;;;;;;5056669;28;20025;-76
2022/07/17 10:35:08;;;;;;;3.15;0.13;;;25.20;72.00;;;;;;5055440;28;20033;-75
2022/07/17 10:37:37;;;;;;;0.47;0.00;;;25.50;68.80;;;;;;5055553;28;20474;-74
2022/07/17 10:40:15;;;;;;;1.90;0.25;;;25.30;65.40;;;;;;5056370;28;20025;-76
2022/07/17 10:42:43;;;;;;;2.40;0.13;;;24.90;67.50;;;;;;5056848;28;20021;-74
2022/07/17 10:45:13;;;;;;;0.08;0.00;;;24.90;68.50;;;;;;5056766;28;20147;-74
2022/07/17 10:47:47;;;;;;;1.50;0.17;;;24.90;66.30;;;;;;5056639;28;20029;-74
2022/07/17 10:50:14;;;;;;;0.40;0.00;;;25.00;68.90;;;;;;5056406;28;20025;-74
2022/07/17 10:52:40;;;;;;;0.35;0.25;;;25.30;66.30;;;;;;5055275;28;20082;-74
2022/07/17 10:55:18;;;;;;;0.13;0.03;;;25.50;66.10;;;;;;5056592;28;20029;-75
2022/07/17 10:57:43;;;;;;;0.95;0.00;;;25.80;65.30;;;;;;5056473;28;20025;-74
2022/07/17 11:00:12;;;;;;;0.55;0.00;;;26.00;65.20;;;;;;5056200;28;20021;-74
2022/07/17 11:02:38;;;;;;;1.25;0.15;;;26.20;61.30;;;;;;5054962;28;20032;-74
2022/07/17 11:05:12;;;;;;;1.10;0.10;;;26.20;61.80;;;;;;5056088;28;20025;-74
2022/07/17 11:07:53;;;;;;;1.55;0.00;;;26.00;60.50;;;;;;5054996;28;20482;-74
2022/07/17 11:10:19;;;;;;;1.45;0.28;;;26.20;62.80;;;;;;5056400;28;20390;-74
2022/07/17 11:12:44;;;;;;;4.82;0.08;;;26.40;61.30;;;;;;5056182;28;20028;-74
2022/07/17 11:15:10;;;;;;;0.50;0.00;;;26.80;60.60;;;;;;5056153;28;20508;-74
2022/07/17 11:17:36;;;;;;;1.13;0.00;;;27.00;59.20;;;;;;5055979;28;20025;-75
2022/07/17 11:20:02;;;;;;;1.77;0.00;;;27.10;60.00;;;;;;5056104;28;20048;-74
2022/07/17 11:22:28;;;;;;;0.80;0.00;;;27.10;57.30;;;;;;5056494;28;20044;-74
2022/07/17 11:24:54;;;;;;;0.20;0.00;;;27.10;58.20;;;;;;5055897;28;20496;-74
2022/07/17 11:27:28;;;;;;;2.45;0.10;;;27.40;57.80;;;;;;5055698;28;20501;-74
2022/07/17 11:29:55;;;;;;;0.22;0.00;;;27.70;55.90;;;;;;5056298;28;20474;-74
2022/07/17 11:32:21;;;;;;;0.45;0.03;;;27.80;56.20;;;;;;5055554;28;20028;-75
2022/07/17 11:34:46;;;;;;;0.40;0.00;;;28.00;54.80;;;;;;5055307;28;20021;-74
2022/07/17 11:37:12;;;;;;;1.65;0.10;;;28.10;54.80;;;;;;5055298;28;20033;-74
2022/07/17 11:39:47;;;;;;;1.95;0.30;;;28.50;54.70;;;;;;5055542;28;20025;-75
2022/07/17 11:42:18;;;;;;;0.47;0.00;;;28.80;51.80;;;;;;5055542;28;20028;-74
2022/07/17 11:44:44;;;;;;;1.67;0.00;;;29.00;52.20;;;;;;5054209;28;20017;-74
2022/07/17 11:47:12;;;;;;;0.98;0.00;;;29.20;51.10;;;;;;5055598;28;20029;-74
2022/07/17 11:49:42;;;;;;;0.20;0.00;;;29.10;51.40;;;;;;5055523;28;20020;-74
2022/07/17 11:52:13;;;;;;;0.50;0.00;;;29.30;52.50;;;;;;5055330;28;20111;-74
2022/07/17 11:54:49;;;;;;;3.30;0.57;;;29.10;49.90;;;;;;5055480;28;20032;-74
2022/07/17 11:57:17;;;;;;;0.85;0.15;;;28.90;51.00;;;;;;5054040;28;20025;-75
2022/07/17 11:59:43;;;;;;;0.22;0.00;;;28.90;49.60;;;;;;5055709;28;20044;-75
2022/07/17 12:02:11;;;;;;;0.80;0.25;;;28.60;48.00;;;;;;5055153;28;20029;-75
2022/07/17 12:04:52;;;;;;;2.15;0.00;;;28.20;49.10;;;;;;5054919;28;20027;-75
2022/07/17 12:07:18;;;;;;;2.95;0.10;;;28.20;50.20;;;;;;5055063;28;20086;-75
2022/07/17 12:09:44;;;;;;;0.52;0.00;;;28.60;50.50;;;;;;5054881;28;20029;-75
2022/07/17 12:12:23;;;;;;;1.85;0.10;;;28.60;51.70;;;;;;5054875;28;20025;-75
2022/07/17 12:14:57;;;;;;;2.33;0.00;;;29.10;51.90;;;;;;5055167;28;20370;-75
2022/07/17 12:17:23;;;;;;;0.32;0.00;;;29.20;49.10;;;;;;5053486;28;20025;-75
2022/07/17 12:19:49;;;;;;;0.45;0.00;;;29.50;48.20;;;;;;5054824;28;20422;-75
2022/07/17 12:22:18;;;;;;;0.47;0.10;;;29.50;46.90;;;;;;5054736;28;20052;-75
2022/07/17 12:24:44;;;;;;;;;;;29.70;48.40;;;;;;5055617;28;20056;-75
2022/07/17 12:27:13;;;;;;;0.22;0.00;;;30.30;49.40;;;;;;5054581;28;19912;-75
2022/07/17 12:29:41;;;;;;;1.45;0.20;;;30.80;47.80;;;;;;5053112;28;20115;-76
2022/07/17 12:32:11;;;;;;;0.85;0.20;;;31.10;43.90;;;;;;5054409;28;20078;-76
2022/07/17 12:34:45;;;;;;;1.38;0.10;;;31.10;45.20;;;;;;5054797;28;20146;-75
2022/07/17 12:37:21;;;;;;;0.45;0.00;;;31.40;46.60;;;;;;5054314;28;20048;-76
2022/07/17 12:39:48;;;;;;;0.68;0.10;;;31.30;47.10;;;;;;5053111;28;20400;-76
2022/07/17 12:42:15;;;;;;;1.00;0.10;;;31.40;46.70;;;;;;5053242;28;20097;-76
2022/07/17 12:44:42;;;;;;;0.70;0.15;;;31.60;46.00;;;;;;5054525;28;20061;-76
2022/07/17 12:47:08;;;;;;;0.93;0.10;;;31.80;45.50;;;;;;5053783;28;20025;-75